createdAt,value
2019-02-26T00:00:44.984Z,83.93
2019-02-26T00:03:11.609Z,83.80
2019-02-26T00:05:40.472Z,83.04
2019-02-26T00:08:09.335Z,82.81
2019-02-26T00:10:39.063Z,83.25
2019-02-26T00:13:08.139Z,83.56
2019-02-26T00:15:38.574Z,84.26
2019-02-26T00:18:11.558Z,84.95
2019-02-26T00:20:39.637Z,85.37
2019-02-26T00:23:08.654Z,86.01
2019-02-26T00:25:37.440Z,86.64
2019-02-26T00:28:06.356Z,87.95
2019-02-26T00:30:37.776Z,88.81
2019-02-26T00:33:05.773Z,89.33
2019-02-26T00:35:34.804Z,89.35
2019-02-26T00:38:03.867Z,89.91
2019-02-26T00:40:34.947Z,90.00
2019-02-26T00:43:04.777Z,89.74
2019-02-26T00:45:36.259Z,89.65
2019-02-26T00:48:04.640Z,90.46
2019-02-26T00:50:35.700Z,91.49
2019-02-26T00:53:04.078Z,91.83
2019-02-26T00:55:34.892Z,91.76
2019-02-26T00:58:05.692Z,91.85
2019-02-26T01:00:35.502Z,91.85
2019-02-26T01:03:06.026Z,92.45
2019-02-26T01:05:36.348Z,93.24
2019-02-26T01:08:06.466Z,93.46
2019-02-26T01:10:37.549Z,93.72
2019-02-26T01:13:07.268Z,94.12
2019-02-26T01:15:36.314Z,94.20
2019-02-26T01:18:05.688Z,94.23
2019-02-26T01:20:34.591Z,94.49
2019-02-26T01:23:03.451Z,94.38
2019-02-26T01:25:32.484Z,94.23
2019-02-26T01:28:01.292Z,94.18
2019-02-26T01:30:31.910Z,94.02
2019-02-26T01:33:03.216Z,93.56
2019-02-26T01:35:33.164Z,93.48
2019-02-26T01:38:01.858Z,93.37
2019-02-26T01:40:30.668Z,93.37
2019-02-26T01:43:01.089Z,93.99
2019-02-26T01:45:32.338Z,94.06
2019-02-26T01:48:00.539Z,93.88
2019-02-26T01:50:30.760Z,93.64
2019-02-26T01:53:01.066Z,93.37
2019-02-26T01:55:29.973Z,93.92
2019-02-26T01:57:59.312Z,94.31
2019-02-26T02:00:28.287Z,94.56
2019-02-26T02:02:57.144Z,94.89
2019-02-26T02:05:28.596Z,95.40
2019-02-26T02:07:56.500Z,95.29
2019-02-26T02:10:25.354Z,95.51
2019-02-26T02:12:57.380Z,95.90
2019-02-26T02:15:24.948Z,96.20
2019-02-26T02:17:57.034Z,96.50
2019-02-26T02:20:25.028Z,96.32
2019-02-26T02:22:56.023Z,96.12
2019-02-26T02:25:28.941Z,95.63
2019-02-26T02:27:57.496Z,95.79
2019-02-26T02:30:30.942Z,95.91
2019-02-26T02:32:59.529Z,96.21
2019-02-26T02:35:27.867Z,96.29
2019-02-26T02:37:59.598Z,96.40
2019-02-26T02:40:27.148Z,96.12
2019-02-26T02:42:56.021Z,95.84
2019-02-26T02:45:25.426Z,95.36
2019-02-26T02:47:57.844Z,95.14
2019-02-26T02:50:25.516Z,95.40
2019-02-26T02:52:56.140Z,96.04
2019-02-26T02:55:25.679Z,97.12
2019-02-26T02:57:55.146Z,98.38
2019-02-26T03:00:28.482Z,98.85
2019-02-26T03:02:58.335Z,98.56
2019-02-26T03:05:31.333Z,98.77
2019-02-26T03:07:57.704Z,98.78
2019-02-26T03:10:30.777Z,98.82
2019-02-26T03:13:00.100Z,98.43
2019-02-26T03:15:30.036Z,98.24
2019-02-26T03:17:58.268Z,98.34
2019-02-26T03:20:28.626Z,98.77
2019-02-26T03:22:57.547Z,99.05
2019-02-26T03:25:29.006Z,99.10
2019-02-26T03:27:57.055Z,99.88
2019-02-26T03:30:32.983Z,99.70
2019-02-26T03:33:03.741Z,99.02
2019-02-26T03:35:27.798Z,98.51
2019-02-26T03:37:58.043Z,98.11
2019-02-26T03:40:29.973Z,98.30
2019-02-26T03:42:58.048Z,98.59
2019-02-26T03:45:27.177Z,98.62
2019-02-26T03:47:58.138Z,99.06
2019-02-26T03:50:27.344Z,98.85
2019-02-26T03:52:56.135Z,98.96
2019-02-26T03:55:25.152Z,98.85
2019-02-26T03:57:56.634Z,98.79
2019-02-26T04:00:24.656Z,98.99
2019-02-26T04:02:53.516Z,98.92
2019-02-26T04:05:22.533Z,99.54
2019-02-26T04:07:55.108Z,100.00
2019-02-26T04:10:22.536Z,100.00
2019-02-26T04:12:52.153Z,100.00
2019-02-26T04:15:24.255Z,100.00
2019-02-26T04:17:52.411Z,100.00
2019-02-26T04:20:21.333Z,100.00
2019-02-26T04:22:53.009Z,100.00
2019-02-26T04:25:35.970Z,100.00
2019-02-26T04:28:19.168Z,100.00
2019-02-26T04:31:32.029Z,100.00
2019-02-26T04:34:40.024Z,100.00
2019-02-26T04:37:55.649Z,100.00
2019-02-26T04:40:38.923Z,100.00
2019-02-26T04:44:03.267Z,100.00
2019-02-26T04:47:14.648Z,100.00
2019-02-26T04:49:43.474Z,100.00
2019-02-26T04:52:14.391Z,100.00
2019-02-26T04:54:42.945Z,100.00
2019-02-26T04:57:11.814Z,100.00
2019-02-26T04:59:43.206Z,100.00
2019-02-26T05:02:11.255Z,100.00
2019-02-26T05:04:42.056Z,100.00
2019-02-26T05:07:13.492Z,100.00
2019-02-26T05:09:41.565Z,100.00
2019-02-26T05:12:10.426Z,100.00
2019-02-26T05:14:39.224Z,100.00
2019-02-26T05:17:08.025Z,100.00
2019-02-26T05:19:39.260Z,100.00
2019-02-26T05:22:07.420Z,100.00
2019-02-26T05:24:37.956Z,100.00
2019-02-26T05:27:15.513Z,100.00
2019-02-26T05:29:46.649Z,100.00
2019-02-26T05:32:16.258Z,100.00
2019-02-26T05:34:47.361Z,100.00
2019-02-26T05:37:15.586Z,100.00
2019-02-26T05:39:46.815Z,100.00
2019-02-26T05:42:14.956Z,100.00
2019-02-26T05:44:43.734Z,100.00
2019-02-26T05:47:13.176Z,100.00
2019-02-26T05:49:45.393Z,100.00
2019-02-26T05:52:13.608Z,100.00
2019-02-26T05:54:42.455Z,100.00
2019-02-26T05:57:25.490Z,100.00
2019-02-26T05:59:42.130Z,100.00
2019-02-26T06:02:13.263Z,100.00
2019-02-26T06:04:43.861Z,100.00
2019-02-26T06:07:11.989Z,100.00
2019-02-26T06:09:40.783Z,100.00
2019-02-26T06:12:09.574Z,100.00
2019-02-26T06:14:39.395Z,100.00
2019-02-26T06:17:10.674Z,100.00
2019-02-26T06:19:46.875Z,100.00
2019-02-26T06:22:18.137Z,100.00
2019-02-26T06:24:46.240Z,100.00
2019-02-26T06:27:16.604Z,100.00
2019-02-26T06:29:45.529Z,100.00
2019-02-26T06:32:15.585Z,100.00
2019-02-26T06:34:44.511Z,100.00
2019-02-26T06:37:18.213Z,100.00
2019-02-26T06:39:50.587Z,100.00
2019-02-26T06:42:17.561Z,100.00
2019-02-26T06:44:48.903Z,100.00
2019-02-26T06:47:17.019Z,100.00
2019-02-26T06:49:47.937Z,100.00
2019-02-26T06:52:18.011Z,100.00
2019-02-26T06:54:50.789Z,100.00
2019-02-26T06:57:17.377Z,100.00
2019-02-26T06:59:46.159Z,100.00
2019-02-26T07:02:14.942Z,100.00
2019-02-26T07:04:43.736Z,100.00
2019-02-26T07:07:14.438Z,100.00
2019-02-26T07:09:43.905Z,100.00
2019-02-26T07:12:14.607Z,100.00
2019-02-26T07:14:43.546Z,100.00
2019-02-26T07:17:12.352Z,100.00
2019-02-26T07:19:41.134Z,100.00
2019-02-26T07:22:11.558Z,100.00
2019-02-26T07:24:41.815Z,100.00
2019-02-26T07:27:11.592Z,100.00
2019-02-26T07:29:42.884Z,100.00
2019-02-26T07:32:12.426Z,100.00
2019-02-26T07:34:44.642Z,100.00
2019-02-26T07:37:13.485Z,100.00
2019-02-26T07:39:44.323Z,100.00
2019-02-26T07:42:16.371Z,100.00
2019-02-26T07:44:44.651Z,100.00
2019-02-26T07:47:13.425Z,99.58
2019-02-26T07:49:42.202Z,99.24
2019-02-26T07:52:10.979Z,98.33
2019-02-26T07:54:42.221Z,97.71
2019-02-26T07:57:10.286Z,97.59
2019-02-26T07:59:39.795Z,96.94
2019-02-26T08:02:11.328Z,95.65
2019-02-26T08:04:41.804Z,94.55
2019-02-26T08:07:10.905Z,92.56
2019-02-26T08:09:39.715Z,92.30
2019-02-26T08:12:11.110Z,95.35
2019-02-26T08:14:41.090Z,96.26
2019-02-26T08:17:09.713Z,96.72
2019-02-26T08:19:39.856Z,97.31
2019-02-26T08:22:09.042Z,97.42
2019-02-26T08:24:37.842Z,96.83
2019-02-26T08:27:08.512Z,96.76
2019-02-26T08:29:38.212Z,95.97
2019-02-26T08:32:07.376Z,95.70
2019-02-26T08:34:39.144Z,95.37
2019-02-26T08:37:07.375Z,94.87
2019-02-26T08:39:38.030Z,93.56
2019-02-26T08:42:11.405Z,93.15
2019-02-26T08:44:40.263Z,92.84
2019-02-26T08:47:11.415Z,91.92
2019-02-26T08:49:40.753Z,88.14
2019-02-26T08:52:10.208Z,85.94
2019-02-26T08:54:39.005Z,85.23
2019-02-26T08:57:08.112Z,83.35
2019-02-26T08:59:36.898Z,84.99
2019-02-26T09:02:05.822Z,86.50
2019-02-26T09:04:35.878Z,87.91
2019-02-26T09:07:05.352Z,87.26
2019-02-26T09:09:34.399Z,86.76
2019-02-26T09:12:03.383Z,87.01
2019-02-26T09:14:34.524Z,86.33
2019-02-26T09:17:04.540Z,85.92
2019-02-26T09:19:35.443Z,85.54
2019-02-26T09:22:03.930Z,84.71
2019-02-26T09:24:32.801Z,83.75
2019-02-26T09:27:03.340Z,83.28
2019-02-26T09:29:34.137Z,82.85
2019-02-26T09:32:02.615Z,81.68
2019-02-26T09:34:32.236Z,81.47
2019-02-26T09:37:05.004Z,80.56
2019-02-26T09:39:34.222Z,79.79
2019-02-26T09:42:04.230Z,78.96
2019-02-26T09:44:35.720Z,77.72
2019-02-26T09:47:05.385Z,76.36
2019-02-26T09:49:35.742Z,76.02
2019-02-26T09:52:06.464Z,75.62
2019-02-26T09:54:40.247Z,74.48
2019-02-26T09:57:05.775Z,73.88
2019-02-26T09:59:35.920Z,73.25
2019-02-26T10:02:06.094Z,72.91
2019-02-26T10:04:35.129Z,71.90
2019-02-26T10:07:04.767Z,71.10
2019-02-26T10:09:36.764Z,69.76
2019-02-26T10:12:07.476Z,69.48
2019-02-26T10:14:38.363Z,69.46
2019-02-26T10:17:06.437Z,68.70
2019-02-26T10:19:38.317Z,68.03
2019-02-26T10:22:09.603Z,66.75
2019-02-26T10:24:38.007Z,66.71
2019-02-26T10:27:10.910Z,66.11
2019-02-26T10:29:39.827Z,66.11
2019-02-26T10:32:11.267Z,65.92
2019-02-26T10:34:40.048Z,65.50
2019-02-26T10:37:09.127Z,65.22
2019-02-26T10:39:38.004Z,64.39
2019-02-26T10:42:06.971Z,64.26
2019-02-26T10:44:35.759Z,63.20
2019-02-26T10:47:06.409Z,62.53
2019-02-26T10:49:36.510Z,62.22
2019-02-26T10:52:05.350Z,61.46
2019-02-26T10:54:39.516Z,61.35
2019-02-26T10:57:07.477Z,61.21
2019-02-26T10:59:37.394Z,61.08
2019-02-26T11:02:06.258Z,59.96
2019-02-26T11:04:38.133Z,58.50
2019-02-26T11:07:08.749Z,57.09
2019-02-26T11:09:38.688Z,57.19
2019-02-26T11:12:08.576Z,57.05
2019-02-26T11:14:39.154Z,56.88
2019-02-26T11:17:07.735Z,55.14
2019-02-26T11:19:39.571Z,54.88
2019-02-26T11:22:07.217Z,54.97
2019-02-26T11:24:36.313Z,55.01
2019-02-26T11:27:05.251Z,54.77
2019-02-26T11:29:35.996Z,54.64
2019-02-26T11:32:07.574Z,53.99
2019-02-26T11:34:38.088Z,54.42
2019-02-26T11:37:08.784Z,53.27
2019-02-26T11:39:36.506Z,53.20
2019-02-26T11:42:05.333Z,54.36
2019-02-26T11:44:34.121Z,52.72
2019-02-26T11:47:02.911Z,52.52
2019-02-26T11:49:31.966Z,51.71
2019-02-26T11:52:01.614Z,51.69
2019-02-26T11:54:34.381Z,50.24
2019-02-26T11:57:04.592Z,50.29
2019-02-26T11:59:33.834Z,49.34
2019-02-26T12:02:04.430Z,48.48
2019-02-26T12:04:34.543Z,48.28
2019-02-26T12:07:06.622Z,48.39
2019-02-26T12:09:37.844Z,48.59
2019-02-26T12:12:06.661Z,47.57
2019-02-26T12:14:37.935Z,47.74
2019-02-26T12:17:06.754Z,46.96
2019-02-26T12:19:39.008Z,46.62
2019-02-26T12:22:07.870Z,45.33
2019-02-26T12:24:36.752Z,45.95
2019-02-26T12:27:07.339Z,45.92
2019-02-26T12:29:39.799Z,44.56
2019-02-26T12:32:08.568Z,44.88
2019-02-26T12:34:38.590Z,44.99
2019-02-26T12:37:11.146Z,44.76
2019-02-26T12:39:38.506Z,45.12
2019-02-26T12:42:10.474Z,44.34
2019-02-26T12:44:39.573Z,44.34
2019-02-26T12:47:08.363Z,44.16
2019-02-26T12:49:39.151Z,42.48
2019-02-26T12:52:08.406Z,42.97
2019-02-26T12:54:39.966Z,41.90
2019-02-26T12:57:08.386Z,41.45
2019-02-26T12:59:37.258Z,42.86
2019-02-26T13:02:09.354Z,39.91
2019-02-26T13:04:39.083Z,40.00
2019-02-26T13:07:09.333Z,39.91
2019-02-26T13:09:47.024Z,39.90
2019-02-26T13:12:12.004Z,38.64
2019-02-26T13:14:40.372Z,37.59
2019-02-26T13:17:09.162Z,38.82
2019-02-26T13:19:37.968Z,39.05
2019-02-26T13:22:09.753Z,39.05
2019-02-26T13:24:37.429Z,39.96
2019-02-26T13:27:06.444Z,39.18
2019-02-26T13:29:35.226Z,38.23
2019-02-26T13:32:07.432Z,39.68
2019-02-26T13:34:34.596Z,38.92
2019-02-26T13:37:03.377Z,38.82
2019-02-26T13:39:38.557Z,37.81
2019-02-26T13:42:05.566Z,37.47
2019-02-26T13:44:33.356Z,37.91
2019-02-26T13:47:02.196Z,37.14
2019-02-26T13:49:30.983Z,39.15
2019-02-26T13:51:59.832Z,37.51
2019-02-26T13:54:28.707Z,37.10
2019-02-26T13:56:57.813Z,36.45
2019-02-26T13:59:26.942Z,37.02
2019-02-26T14:01:55.893Z,37.24
2019-02-26T14:04:24.788Z,38.28
2019-02-26T14:06:53.554Z,38.10
2019-02-26T14:09:22.413Z,38.05
2019-02-26T14:11:51.601Z,37.64
2019-02-26T14:14:20.812Z,37.77
2019-02-26T14:16:50.074Z,37.63
2019-02-26T14:19:18.901Z,37.32
2019-02-26T14:21:47.671Z,36.94
2019-02-26T14:24:16.451Z,37.69
2019-02-26T14:26:45.303Z,37.09
2019-02-26T14:29:14.122Z,37.59
2019-02-26T14:31:42.914Z,38.03
2019-02-26T14:34:11.917Z,37.80
2019-02-26T14:36:40.957Z,38.22
2019-02-26T14:39:10.830Z,38.04
2019-02-26T14:41:39.595Z,37.27
2019-02-26T14:44:08.464Z,36.87
2019-02-26T14:46:37.424Z,36.98
2019-02-26T14:49:06.281Z,37.24
2019-02-26T14:51:35.254Z,37.71
2019-02-26T14:54:05.959Z,38.44
2019-02-26T14:56:35.258Z,37.60
2019-02-26T14:59:04.204Z,37.01
2019-02-26T15:01:32.991Z,37.06
2019-02-26T15:04:01.783Z,37.29
2019-02-26T15:06:30.568Z,37.29
2019-02-26T15:08:59.355Z,37.28
2019-02-26T15:11:28.180Z,37.40
2019-02-26T15:13:56.979Z,37.33
2019-02-26T15:16:25.814Z,37.00
2019-02-26T15:18:54.653Z,37.31
2019-02-26T15:21:23.703Z,37.88
2019-02-26T15:23:52.592Z,37.90
2019-02-26T15:26:22.005Z,37.54
2019-02-26T15:28:50.783Z,37.84
2019-02-26T15:31:19.554Z,38.27
2019-02-26T15:33:48.351Z,38.78
2019-02-26T15:36:17.186Z,38.56
2019-02-26T15:38:46.012Z,39.03
2019-02-26T15:41:14.816Z,40.19
2019-02-26T15:43:43.624Z,39.98
2019-02-26T15:46:12.685Z,40.49
2019-02-26T15:48:41.469Z,40.02
2019-02-26T15:51:14.268Z,40.20
2019-02-26T15:53:41.302Z,40.59
2019-02-26T15:56:10.086Z,41.28
2019-02-26T15:58:38.890Z,40.98
2019-02-26T16:01:12.816Z,40.90
2019-02-26T16:03:41.645Z,40.70
2019-02-26T16:06:10.529Z,40.67
2019-02-26T16:08:41.326Z,40.90
2019-02-26T16:11:09.992Z,41.30
2019-02-26T16:13:38.821Z,41.68
2019-02-26T16:16:07.687Z,42.06
2019-02-26T16:18:36.469Z,42.49
2019-02-26T16:21:05.342Z,43.19
2019-02-26T16:23:34.110Z,43.33
2019-02-26T16:26:02.898Z,43.42
2019-02-26T16:28:31.679Z,43.74
2019-02-26T16:31:00.457Z,44.09
2019-02-26T16:33:29.270Z,44.36
2019-02-26T16:35:58.406Z,44.94
2019-02-26T16:38:27.320Z,44.68
2019-02-26T16:40:56.302Z,44.54
2019-02-26T16:43:25.368Z,44.48
2019-02-26T16:45:54.487Z,45.11
2019-02-26T16:48:23.247Z,45.11
2019-02-26T16:50:52.112Z,45.27
2019-02-26T16:53:20.927Z,45.77
2019-02-26T16:55:49.880Z,45.82
2019-02-26T16:58:18.658Z,45.67
2019-02-26T17:00:48.919Z,45.57
2019-02-26T17:03:18.228Z,45.66
2019-02-26T17:05:47.662Z,45.39
2019-02-26T17:08:17.066Z,45.16
2019-02-26T17:10:46.037Z,45.34
2019-02-26T17:13:14.950Z,45.41
2019-02-26T17:15:43.750Z,45.67
2019-02-26T17:18:12.522Z,45.97
2019-02-26T17:20:41.395Z,46.02
2019-02-26T17:23:13.744Z,46.19
2019-02-26T17:25:40.713Z,46.58
2019-02-26T17:28:12.223Z,46.25
2019-02-26T17:30:40.273Z,46.25
2019-02-26T17:33:11.388Z,46.34
2019-02-26T17:35:39.644Z,46.69
2019-02-26T17:38:08.663Z,47.09
2019-02-26T17:40:37.528Z,47.57
2019-02-26T17:43:06.470Z,48.57
2019-02-26T17:45:37.237Z,49.27
2019-02-26T17:48:06.494Z,50.36
2019-02-26T17:50:35.812Z,51.14
2019-02-26T17:53:05.400Z,51.60
2019-02-26T17:55:34.527Z,52.43
2019-02-26T17:58:03.508Z,52.54
2019-02-26T18:00:35.272Z,53.29
2019-02-26T18:03:07.275Z,53.39
2019-02-26T18:05:39.365Z,53.53
2019-02-26T18:08:05.549Z,53.82
2019-02-26T18:10:36.507Z,53.94
2019-02-26T18:13:05.242Z,54.31
2019-02-26T18:15:34.112Z,54.44
2019-02-26T18:18:02.883Z,54.67
2019-02-26T18:20:31.693Z,55.10
2019-02-26T18:23:00.871Z,55.55
2019-02-26T18:25:29.798Z,55.51
2019-02-26T18:27:58.608Z,55.38
2019-02-26T18:30:28.201Z,55.31
2019-02-26T18:32:58.993Z,55.38
2019-02-26T18:35:28.142Z,56.02
2019-02-26T18:37:58.168Z,57.18
2019-02-26T18:40:28.351Z,57.85
2019-02-26T18:42:58.318Z,58.76
2019-02-26T18:45:28.721Z,59.62
2019-02-26T18:47:58.550Z,60.22
2019-02-26T18:50:28.643Z,61.15
2019-02-26T18:52:58.754Z,61.93
2019-02-26T18:55:32.325Z,62.52
2019-02-26T18:57:59.150Z,62.63
2019-02-26T19:00:29.138Z,63.53
2019-02-26T19:02:58.859Z,63.42
2019-02-26T19:05:27.734Z,64.43
2019-02-26T19:07:56.597Z,65.51
2019-02-26T19:10:25.463Z,65.29
2019-02-26T19:12:54.312Z,65.65
2019-02-26T19:15:23.182Z,66.42
2019-02-26T19:17:53.005Z,66.71
2019-02-26T19:20:24.334Z,67.24
2019-02-26T19:22:53.133Z,66.94
2019-02-26T19:25:22.055Z,67.01
2019-02-26T19:27:53.072Z,67.60
2019-02-26T19:30:21.642Z,67.95
2019-02-26T19:32:50.458Z,68.29
2019-02-26T19:35:19.330Z,68.64
2019-02-26T19:37:49.458Z,68.91
2019-02-26T19:40:19.675Z,68.85
2019-02-26T19:42:52.671Z,69.30
2019-02-26T19:45:19.036Z,69.93
2019-02-26T19:47:47.903Z,70.46
2019-02-26T19:50:16.791Z,70.88
2019-02-26T19:52:45.753Z,71.32
2019-02-26T19:55:17.475Z,71.39
2019-02-26T19:57:46.301Z,71.79
2019-02-26T20:00:19.670Z,72.11
2019-02-26T20:02:45.982Z,72.64
2019-02-26T20:05:15.079Z,72.73
2019-02-26T20:07:44.048Z,72.92
2019-02-26T20:10:15.155Z,73.84
2019-02-26T20:12:44.169Z,75.03
2019-02-26T20:15:13.425Z,77.07
2019-02-26T20:17:42.403Z,78.16
2019-02-26T20:20:12.156Z,78.41
2019-02-26T20:22:41.060Z,78.29
2019-02-26T20:25:15.170Z,78.65
2019-02-26T20:27:44.278Z,78.96
2019-02-26T20:30:15.811Z,79.15
2019-02-26T20:32:44.847Z,79.09
2019-02-26T20:35:13.673Z,79.02
2019-02-26T20:37:42.544Z,78.81
2019-02-26T20:40:16.002Z,79.12
2019-02-26T20:42:43.967Z,78.82
2019-02-26T20:45:17.729Z,78.71
2019-02-26T20:47:46.346Z,79.00
2019-02-26T20:50:19.963Z,79.92
2019-02-26T20:52:46.273Z,80.12
2019-02-26T20:55:16.695Z,79.71
2019-02-26T20:57:46.955Z,79.11
2019-02-26T21:00:17.250Z,79.35
2019-02-26T21:02:46.259Z,80.06
2019-02-26T21:05:15.200Z,80.42
2019-02-26T21:07:44.211Z,80.41
2019-02-26T21:10:15.389Z,80.45
2019-02-26T21:12:44.379Z,80.30
2019-02-26T21:15:15.130Z,80.35
2019-02-26T21:17:44.015Z,80.83
2019-02-26T21:20:13.059Z,81.18
2019-02-26T21:22:41.922Z,81.38
2019-02-26T21:25:11.465Z,81.73
2019-02-26T21:27:40.415Z,81.73
2019-02-26T21:30:12.011Z,82.37
2019-02-26T21:32:41.435Z,82.65
2019-02-26T21:35:10.384Z,82.53
2019-02-26T21:37:39.447Z,83.07
2019-02-26T21:40:09.170Z,83.70
2019-02-26T21:42:37.956Z,84.75
2019-02-26T21:45:07.355Z,85.84
2019-02-26T21:47:36.210Z,86.47
2019-02-26T21:50:05.741Z,86.99
2019-02-26T21:52:34.673Z,87.66
2019-02-26T21:55:03.534Z,87.83
2019-02-26T21:57:32.340Z,88.18
2019-02-26T22:02:40.829Z,88.35
2019-02-26T22:05:10.099Z,88.36
2019-02-26T22:07:38.960Z,88.14
2019-02-26T22:10:09.436Z,87.80
2019-02-26T22:12:38.212Z,89.07
2019-02-26T22:15:10.206Z,89.99
2019-02-26T22:17:38.068Z,90.04
2019-02-26T22:20:09.246Z,89.89
2019-02-26T22:22:38.389Z,89.18
2019-02-26T22:25:09.858Z,88.75
2019-02-26T22:27:38.187Z,88.67
2019-02-26T22:30:08.646Z,89.06
2019-02-26T22:32:38.827Z,89.40
2019-02-26T22:35:08.315Z,89.33
2019-02-26T22:37:38.994Z,89.94
2019-02-26T22:40:08.779Z,90.42
2019-02-26T22:42:38.873Z,91.09
2019-02-26T22:45:08.940Z,91.51
2019-02-26T22:47:40.556Z,91.86
2019-02-26T22:50:09.608Z,91.33
2019-02-26T22:52:38.461Z,90.80
2019-02-26T22:55:07.725Z,91.23
2019-02-26T22:57:37.380Z,91.04
2019-02-26T23:00:51.091Z,90.99
2019-02-26T23:03:20.127Z,90.57
2019-02-26T23:05:49.073Z,90.45
2019-02-26T23:08:18.117Z,90.87
2019-02-26T23:10:47.195Z,90.49
2019-02-26T23:13:17.415Z,90.67
2019-02-26T23:15:46.387Z,90.98
2019-02-26T23:18:16.262Z,90.86
2019-02-26T23:20:45.271Z,91.51
2019-02-26T23:23:14.700Z,91.83
2019-02-26T23:25:43.783Z,91.82
2019-02-26T23:28:12.641Z,92.34
2019-02-26T23:30:41.903Z,92.30
2019-02-26T23:33:15.014Z,92.54
2019-02-26T23:35:41.473Z,93.02
2019-02-26T23:38:10.335Z,93.77
2019-02-26T23:40:39.300Z,94.29
2019-02-26T23:43:11.760Z,94.61
2019-02-26T23:45:40.171Z,94.78
2019-02-26T23:48:09.116Z,94.74
2019-02-26T23:50:38.276Z,95.52
2019-02-26T23:53:07.072Z,95.61
2019-02-26T23:55:35.892Z,95.50
2019-02-26T23:58:04.735Z,95.23
